Time;durP1;ratioP1;P1;durP2;ratioP2;P2;SDS_P1;SDS_P2;PMS_P1;PMS_P2;Temp;Humidity;BMP_temperature;BMP_pressure;BME280_temperature;BME280_humidity;BME280_pressure;Samples;Min_cycle;Max_cycle;Signal;HPM_P1;HPM_P2
2022/12/22 03:28:07;;;;;;;124.40;31.35;;;;;;;8.20;100.00;100125.69;5041099;28;19974;-74
2022/12/22 03:30:33;;;;;;;141.35;32.90;;;;;;;8.19;100.00;100121.28;5038478;28;20388;-73
2022/12/22 03:32:59;;;;;;;135.07;30.38;;;;;;;8.17;100.00;100110.78;5047256;28;20025;-74
2022/12/22 03:35:24;;;;;;;146.98;33.40;;;;;;;8.16;100.00;100108.16;5049275;28;20028;-74
2022/12/22 03:37:50;;;;;;;152.32;34.95;;;;;;;8.15;100.00;100103.78;5052471;28;20028;-74
2022/12/22 03:40:15;;;;;;;137.57;32.38;;;;;;;8.16;100.00;100111.66;5051001;28;20065;-74
2022/12/22 03:48:08;;;;;;;144.80;31.90;;;;;;;8.16;100.00;100108.16;5046606;28;20048;-74
2022/12/22 03:50:34;;;;;;;157.20;32.35;;;;;;;8.17;100.00;100118.66;5039764;28;20021;-75
2022/12/22 03:52:59;;;;;;;152.45;31.67;;;;;;;8.18;100.00;100127.38;5043804;28;20500;-73
2022/12/22 03:55:25;;;;;;;148.23;33.70;;;;;;;8.18;100.00;100128.28;5051173;28;20078;-74
2022/12/22 03:57:50;;;;;;;138.80;32.70;;;;;;;8.20;100.00;100130.94;5042638;28;20134;-73
2022/12/22 04:00:15;;;;;;;139.23;32.17;;;;;;;8.24;100.00;100130.13;5042284;28;20045;-74
2022/12/22 04:02:41;;;;;;;148.27;32.88;;;;;;;8.26;100.00;100131.00;5043190;28;20026;-73
2022/12/22 04:05:07;;;;;;;163.80;33.80;;;;;;;8.24;100.00;100132.72;5060293;28;20123;-74
2022/12/22 04:07:32;;;;;;;149.73;33.72;;;;;;;8.24;100.00;100133.59;5056687;28;20017;-74
2022/12/22 04:12:53;;;;;;;153.23;34.88;;;;;;;8.27;100.00;100138.91;5049318;28;20424;-74
2022/12/22 04:15:20;;;;;;;143.77;33.40;;;;;;;8.28;100.00;100137.16;5050570;28;20473;-74
2022/12/22 04:17:45;;;;;;;145.93;32.50;;;;;;;8.27;100.00;100138.00;5047065;28;20017;-74
2022/12/22 04:20:11;;;;;;;151.27;33.63;;;;;;;8.27;100.00;100136.28;5033769;28;20025;-74
2022/12/22 04:22:36;;;;;;;152.02;32.15;;;;;;;8.27;100.00;100143.25;5049307;28;20066;-75
2022/12/22 04:25:02;;;;;;;151.45;34.70;;;;;;;8.28;100.00;100139.78;5045581;28;20067;-74
2022/12/22 04:27:27;;;;;;;144.75;33.97;;;;;;;8.27;100.00;100149.41;5053233;28;20472;-74
2022/12/22 04:29:52;;;;;;;131.77;32.72;;;;;;;8.26;100.00;100151.97;5039960;28;20427;-74
2022/12/22 04:32:18;;;;;;;132.60;30.95;;;;;;;8.26;100.00;100146.72;5042455;28;20520;-72
2022/12/22 04:34:43;;;;;;;123.15;31.23;;;;;;;8.23;100.00;100144.06;5051009;28;20024;-75
2022/12/22 04:37:08;;;;;;;128.55;30.38;;;;;;;8.20;100.00;100147.53;5050737;28;20167;-73
2022/12/22 04:39:34;;;;;;;111.45;29.75;;;;;;;8.17;100.00;100141.38;5058988;28;20074;-74
2022/12/22 04:41:59;;;;;;;107.15;28.13;;;;;;;8.14;100.00;100141.31;5055669;28;20028;-74
2022/12/22 04:44:24;;;;;;;106.25;28.02;;;;;;;8.12;100.00;100137.78;5049516;28;20065;-73
2022/12/22 04:46:49;;;;;;;107.50;28.65;;;;;;;8.07;100.00;100146.47;5045524;28;20021;-74
2022/12/22 04:49:15;;;;;;;109.75;27.85;;;;;;;8.07;100.00;100146.47;5047926;28;20029;-74
2022/12/22 04:51:40;;;;;;;132.68;29.55;;;;;;;8.05;100.00;100150.78;5054104;28;20021;-74
2022/12/22 04:54:05;;;;;;;121.30;24.98;;;;;;;8.04;100.00;100161.25;5048218;28;20029;-75
2022/12/22 04:56:31;;;;;;;107.40;22.02;;;;;;;8.02;100.00;100157.75;5054638;28;20040;-74
2022/12/22 04:58:56;;;;;;;137.57;23.35;;;;;;;7.98;100.00;100167.28;5056705;28;20061;-74
2022/12/22 05:01:22;;;;;;;115.70;19.92;;;;;;;7.92;100.00;100167.16;5053780;28;20045;-74
2022/12/22 05:03:47;;;;;;;99.43;20.98;;;;;;;7.89;100.00;100169.75;5051113;28;20098;-74
2022/12/22 05:06:14;;;;;;;110.40;20.65;;;;;;;7.84;100.00;100174.91;5070140;28;20036;-74
2022/12/22 05:08:39;;;;;;;110.45;21.02;;;;;;;7.82;100.00;100168.75;5049953;28;20031;-74
2022/12/22 05:11:05;;;;;;;123.20;21.40;;;;;;;7.81;100.00;100171.34;5066734;28;20392;-74
2022/12/22 05:13:31;;;;;;;106.78;19.35;;;;;;;7.78;100.00;100181.78;5066804;28;20499;-73
2022/12/22 05:16:04;;;;;;;89.20;16.50;;;;;;;7.72;100.00;100186.06;5053907;28;20033;-73
2022/12/22 05:18:29;;;;;;;82.88;14.80;;;;;;;7.69;100.00;100191.25;5048648;28;20139;-74
2022/12/22 05:20:54;;;;;;;93.47;14.55;;;;;;;7.66;100.00;100195.53;5045613;28;20120;-73
2022/12/22 05:23:20;;;;;;;106.63;13.55;;;;;;;7.63;100.00;100196.38;5042294;28;20435;-75
2022/12/22 05:25:45;;;;;;;88.03;13.65;;;;;;;7.56;100.00;100195.38;5055467;28;20480;-73
2022/12/22 05:28:10;;;;;;;74.88;14.52;;;;;;;7.57;100.00;100196.28;5051451;28;20472;-75
2022/12/22 05:30:36;;;;;;;84.20;15.05;;;;;;;7.55;100.00;100195.34;5040785;28;20048;-72
2022/12/22 05:33:01;;;;;;;84.93;14.27;;;;;;;7.54;100.00;100196.19;5056641;28;20441;-74
2022/12/22 05:35:26;;;;;;;115.72;16.80;;;;;;;7.50;100.00;100199.59;5052295;28;20504;-74
2022/12/22 05:37:52;;;;;;;107.68;15.52;;;;;;;7.50;100.00;100187.41;5048843;28;20056;-75
2022/12/22 05:40:17;;;;;;;124.32;18.52;;;;;;;7.49;100.00;100187.38;5053522;28;20043;-74
2022/12/22 05:42:42;;;;;;;101.50;16.55;;;;;;;7.48;100.00;100196.09;5053269;28;20057;-74
2022/12/22 05:45:14;;;;;;;93.65;14.98;;;;;;;7.46;100.00;100189.94;5066372;28;20033;-73
2022/12/22 05:47:41;;;;;;;130.98;16.25;;;;;;;7.45;100.00;100206.50;5047325;28;20033;-73
2022/12/22 05:50:08;;;;;;;115.80;17.50;;;;;;;7.44;100.00;100203.00;5047443;28;20162;-74
2022/12/22 05:52:33;;;;;;;89.47;15.15;;;;;;;7.42;100.00;100202.97;5046737;28;20051;-74
2022/12/22 05:54:58;;;;;;;107.65;16.55;;;;;;;7.42;100.00;100212.56;5048579;28;20025;-74
2022/12/22 05:57:24;;;;;;;105.68;16.83;;;;;;;7.41;100.00;100201.19;5049673;28;20051;-74
2022/12/22 05:59:49;;;;;;;98.78;16.15;;;;;;;7.40;100.00;100209.91;5050594;28;20029;-73
2022/12/22 06:02:15;;;;;;;132.45;17.45;;;;;;;7.41;100.00;100209.06;5048638;28;20025;-73
2022/12/22 06:04:40;;;;;;;80.38;18.83;;;;;;;7.39;100.00;100213.41;5049577;28;20048;-75
2022/12/22 06:07:06;;;;;;;85.57;17.83;;;;;;;7.36;100.00;100215.94;5052550;28;20095;-74
2022/12/22 06:09:31;;;;;;;78.90;18.48;;;;;;;7.37;100.00;100224.69;5051658;28;20496;-74
2022/12/22 06:11:56;;;;;;;91.65;18.98;;;;;;;7.32;100.00;100219.34;5052274;28;20526;-75
2022/12/22 06:14:22;;;;;;;76.65;20.13;;;;;;;7.31;100.00;100225.44;5058316;28;20059;-73
2022/12/22 06:16:47;;;;;;;74.18;18.80;;;;;;;7.28;100.00;100225.38;5056064;28;20075;-74
2022/12/22 06:19:13;;;;;;;87.10;19.42;;;;;;;7.23;100.00;100234.84;5043148;28;20504;-73
2022/12/22 06:21:38;;;;;;;84.95;18.55;;;;;;;7.16;100.00;100240.81;5041839;28;20033;-74
2022/12/22 06:24:04;;;;;;;83.38;19.92;;;;;;;7.14;100.00;100242.53;5034907;28;20110;-74
2022/12/22 06:26:30;;;;;;;77.93;19.27;;;;;;;7.09;100.00;100239.81;5051351;28;20115;-73
2022/12/22 06:28:55;;;;;;;79.57;19.80;;;;;;;7.03;100.00;100247.53;5053154;28;20028;-74
2022/12/22 06:31:21;;;;;;;69.50;18.98;;;;;;;7.02;100.00;100253.63;5043890;28;20033;-73
2022/12/22 06:33:46;;;;;;;62.08;17.83;;;;;;;6.99;100.00;100253.56;5052361;28;20025;-72
2022/12/22 06:36:12;;;;;;;59.63;16.70;;;;;;;6.96;100.00;100256.09;5052801;28;20029;-75
2022/12/22 06:38:38;;;;;;;57.15;15.73;;;;;;;6.96;100.00;100262.22;5042587;28;20150;-73
2022/12/22 06:41:03;;;;;;;58.08;16.10;;;;;;;6.97;100.00;100270.94;5045395;28;20059;-74
2022/12/22 06:43:29;;;;;;;59.50;15.70;;;;;;;6.94;100.00;100266.53;5052904;28;20055;-74
2022/12/22 06:45:54;;;;;;;58.55;13.98;;;;;;;6.94;100.00;100261.28;5052737;28;20017;-75
2022/12/22 06:48:20;;;;;;;44.30;12.70;;;;;;;6.94;100.00;100266.53;5038338;28;20477;-74
2022/12/22 06:50:45;;;;;;;52.25;12.05;;;;;;;6.95;100.00;100267.44;5043333;28;20021;-74
2022/12/22 06:53:11;;;;;;;45.38;11.85;;;;;;;6.94;100.00;100273.50;5033943;28;20090;-74
2022/12/22 06:55:37;;;;;;;32.40;10.93;;;;;;;6.93;100.00;100275.22;5055609;28;20083;-74
2022/12/22 06:58:03;;;;;;;34.03;10.73;;;;;;;6.92;100.00;100273.47;5045056;28;20040;-74
2022/12/22 07:00:29;;;;;;;38.92;12.38;;;;;;;6.88;100.00;100267.28;5047933;28;20484;-74
2022/12/22 07:02:54;;;;;;;36.58;12.88;;;;;;;6.87;100.00;100269.88;5052315;28;20108;-74
2022/12/22 07:05:20;;;;;;;41.35;11.95;;;;;;;6.83;100.00;100274.13;5050376;28;20045;-73
2022/12/22 07:07:45;;;;;;;36.72;11.27;;;;;;;6.81;100.00;100278.47;5049730;28;20056;-74
2022/12/22 07:10:11;;;;;;;35.45;10.20;;;;;;;6.79;100.00;100287.13;5045486;28;20040;-74
2022/12/22 07:12:36;;;;;;;35.38;10.52;;;;;;;6.72;100.00;100289.56;5051590;28;20540;-75
2022/12/22 07:15:02;;;;;;;33.22;10.35;;;;;;;6.67;100.00;100295.56;5068749;28;20017;-74
2022/12/22 07:17:28;;;;;;;36.35;10.40;;;;;;;6.64;100.00;100296.34;5047824;28;20053;-74
2022/12/22 07:19:53;;;;;;;37.90;9.80;;;;;;;6.60;100.00;100291.91;5047442;28;20028;-74
2022/12/22 07:22:19;;;;;;;35.60;12.40;;;;;;;6.51;100.00;100300.44;5049831;28;20025;-74
2022/12/22 07:24:44;;;;;;;29.83;9.95;;;;;;;6.41;100.00;100306.25;5048531;28;20035;-75
2022/12/22 07:27:10;;;;;;;36.80;9.10;;;;;;;6.36;100.00;100307.88;5049518;28;20136;-75
2022/12/22 07:29:35;;;;;;;38.22;9.05;;;;;;;6.32;100.00;100312.16;5047463;28;20031;-74
2022/12/22 07:32:01;;;;;;;26.80;9.38;;;;;;;6.24;100.00;100319.78;5049536;28;20036;-73
2022/12/22 07:34:27;;;;;;;35.72;8.98;;;;;;;6.19;100.00;100320.53;5037723;28;20079;-75
2022/12/22 07:36:52;;;;;;;31.88;9.07;;;;;;;6.14;100.00;100327.34;5039508;28;20037;-74
2022/12/22 07:39:17;;;;;;;27.95;9.57;;;;;;;6.05;100.00;100326.25;5038654;28;20029;-72
2022/12/22 07:44:26;;;;;;;28.25;8.80;;;;;;;6.00;100.00;100333.09;5053851;28;20105;-72
2022/12/22 07:46:52;;;;;;;31.92;10.32;;;;;;;5.99;100.00;100339.16;5065064;28;20059;-73
2022/12/22 07:52:01;;;;;;;41.58;13.13;;;;;;;5.99;100.00;100333.94;5050282;28;20032;-73
2022/12/22 07:54:27;;;;;;;35.78;11.75;;;;;;;5.98;100.00;100331.28;5059339;28;20024;-71
2022/12/22 07:56:53;;;;;;;30.33;10.73;;;;;;;5.98;100.00;100326.06;5056162;28;20031;-73
2022/12/22 07:59:19;;;;;;;29.25;10.15;;;;;;;5.96;100.00;100336.44;5054546;28;20029;-73
2022/12/22 08:01:45;;;;;;;25.65;8.18;;;;;;;5.95;100.00;100336.38;5063002;28;20603;-75
2022/12/22 08:04:11;;;;;;;36.42;9.18;;;;;;;5.93;100.00;100333.75;5072264;28;20028;-74
2022/12/22 08:06:37;;;;;;;26.92;8.77;;;;;;;5.95;100.00;100347.72;5056498;28;20156;-74
2022/12/22 08:09:04;;;;;;;38.83;9.32;;;;;;;5.94;100.00;100352.91;5054875;28;20528;-75
2022/12/22 08:11:30;;;;;;;23.98;8.40;;;;;;;5.91;100.00;100366.75;5051452;28;20017;-75
2022/12/22 08:13:55;;;;;;;25.35;8.75;;;;;;;5.88;100.00;100377.13;5051535;28;20098;-74
2022/12/22 08:16:21;;;;;;;22.38;8.05;;;;;;;5.87;100.00;100381.47;5045679;28;20130;-75
2022/12/22 08:18:46;;;;;;;24.33;8.50;;;;;;;5.82;100.00;100392.59;5063426;28;20452;-74
2022/12/22 08:21:12;;;;;;;30.23;9.73;;;;;;;5.80;100.00;100391.69;5054228;28;20034;-73
2022/12/22 08:23:38;;;;;;;30.55;9.23;;;;;;;5.83;100.00;100396.97;5078159;28;20032;-73
2022/12/22 08:26:26;;;;;;;25.10;9.55;;;;;;;5.83;100.00;100394.38;5071275;28;20092;-72
2022/12/22 08:28:54;;;;;;;36.17;10.50;;;;;;;5.83;100.00;100399.59;5067589;28;20033;-72
2022/12/22 08:31:23;;;;;;;30.85;11.10;;;;;;;5.85;100.00;100401.41;5056021;28;20110;-70
2022/12/22 08:33:48;;;;;;;34.17;10.88;;;;;;;5.87;100.00;100399.75;5055972;28;20033;-72
2022/12/22 08:36:14;;;;;;;42.03;10.50;;;;;;;5.89;100.00;100405.88;5056216;28;20040;-73
2022/12/22 08:38:41;;;;;;;42.83;11.20;;;;;;;5.91;100.00;100403.31;5060928;28;20035;-74
2022/12/22 08:41:12;;;;;;;36.22;10.85;;;;;;;5.94;100.00;100405.13;5054945;28;20097;-73
2022/12/22 08:43:37;;;;;;;44.38;11.73;;;;;;;5.95;100.00;100405.16;5054872;28;20025;-72
2022/12/22 08:46:02;;;;;;;40.40;10.95;;;;;;;5.96;100.00;100413.91;5058339;28;20099;-74
2022/12/22 08:48:28;;;;;;;37.55;10.57;;;;;;;6.04;100.00;100421.13;5057637;28;20025;-72
2022/12/22 08:50:53;;;;;;;35.53;11.07;;;;;;;6.08;100.00;100433.44;5071659;28;20055;-73
2022/12/22 08:53:19;;;;;;;34.28;10.77;;;;;;;6.16;100.00;100419.69;5057359;28;20021;-69
2022/12/22 08:55:52;;;;;;;42.22;10.10;;;;;;;6.18;100.00;100429.34;5070617;28;20492;-70
2022/12/22 08:58:17;;;;;;;29.75;9.95;;;;;;;6.23;100.00;100422.53;5076473;28;20387;-71
2022/12/22 09:00:43;;;;;;;47.80;12.40;;;;;;;6.27;100.00;100427.81;5056533;28;20120;-70
2022/12/22 09:03:08;;;;;;;25.83;10.43;;;;;;;6.25;100.00;100430.41;5037983;28;20048;-71
2022/12/22 09:05:37;;;;;;;32.58;9.85;;;;;;;6.26;100.00;100426.94;5038216;28;20021;-71
2022/12/22 09:08:03;;;;;;;27.65;10.40;;;;;;;6.29;100.00;100431.38;5060537;28;20025;-71
2022/12/22 09:10:28;;;;;;;40.22;11.77;;;;;;;6.33;100.00;100433.22;5070633;28;20047;-72
2022/12/22 09:12:54;;;;;;;26.73;11.80;;;;;;;6.36;100.00;100438.53;5078355;28;20060;-72
2022/12/22 09:15:20;;;;;;;39.08;12.32;;;;;;;6.44;100.00;100436.13;5077928;28;20035;-71
2022/12/22 09:17:47;;;;;;;30.67;11.18;;;;;;;6.47;100.00;100429.28;5047914;28;20025;-71
2022/12/22 09:20:13;;;;;;;32.90;11.95;;;;;;;6.53;100.00;100425.94;5057697;28;20017;-71
2022/12/22 09:22:38;;;;;;;30.98;11.77;;;;;;;6.61;100.00;100439.22;5057251;28;20500;-71
2022/12/22 09:25:04;;;;;;;39.22;12.38;;;;;;;6.69;100.00;100435.94;5058891;28;20087;-71
2022/12/22 09:27:29;;;;;;;31.05;12.77;;;;;;;6.75;100.00;100433.50;5059091;28;20029;-72
2022/12/22 09:29:54;;;;;;;43.10;14.20;;;;;;;6.82;100.00;100441.47;5057849;28;20457;-72
2022/12/22 09:32:20;;;;;;;32.13;13.45;;;;;;;6.89;100.00;100446.00;5041671;28;20116;-71
2022/12/22 09:34:45;;;;;;;28.35;14.63;;;;;;;6.94;100.00;100444.38;5034378;28;20055;-70
2022/12/22 09:37:14;;;;;;;37.00;15.02;;;;;;;7.02;100.00;100450.69;5034966;28;20136;-71
2022/12/22 09:39:39;;;;;;;35.30;14.98;;;;;;;7.12;100.00;100464.00;5038248;28;20080;-71
2022/12/22 09:42:13;;;;;;;35.60;13.93;;;;;;;7.32;100.00;100462.75;5054728;28;20029;-71
2022/12/22 09:44:43;;;;;;;35.03;14.85;;;;;;;7.50;100.00;100466.63;5053797;28;20025;-71
2022/12/22 09:47:21;;;;;;;30.17;13.10;;;;;;;7.57;100.00;100463.34;5060707;28;20028;-70
2022/12/22 09:49:47;;;;;;;38.47;13.35;;;;;;;7.81;100.00;100462.09;5068170;28;20391;-70
2022/12/22 09:52:32;;;;;;;25.58;12.23;;;;;;;7.84;100.00;100467.38;5059214;28;20103;-70
2022/12/22 09:54:57;;;;;;;27.63;11.98;;;;;;;7.99;100.00;100467.72;5051901;28;20385;-71
2022/12/22 09:57:28;;;;;;;24.02;10.60;;;;;;;8.10;100.00;100475.81;5053527;28;20033;-70
2022/12/22 09:59:55;;;;;;;21.15;10.20;;;;;;;8.26;100.00;100477.00;5065095;28;20036;-70
2022/12/22 10:02:30;;;;;;;35.28;9.95;;;;;;;8.40;100.00;100478.16;5069989;28;20490;-70
2022/12/22 10:05:09;;;;;;;20.70;8.85;;;;;;;8.50;100.00;100479.25;5074221;28;20044;-70
2022/12/22 10:07:39;;;;;;;19.02;7.85;;;;;;;8.78;100.00;100479.78;5073928;28;20451;-70
2022/12/22 10:10:05;;;;;;;21.13;7.78;;;;;;;8.88;100.00;100476.44;5064484;28;20029;-70
2022/12/22 10:12:30;;;;;;;14.75;7.25;;;;;;;8.88;100.00;100476.44;5055101;28;20078;-69
2022/12/22 10:14:55;;;;;;;9.60;6.25;;;;;;;9.23;100.00;100475.28;5049452;28;20037;-69
2022/12/22 10:17:24;;;;;;;13.45;5.28;;;;;;;9.51;100.00;100480.94;5050508;28;20028;-69
2022/12/22 10:19:53;;;;;;;9.93;4.85;;;;;;;9.73;100.00;100485.66;5051275;28;20461;-69
2022/12/22 10:22:30;;;;;;;16.58;4.57;;;;;;;10.00;100.00;100491.25;5051066;28;20037;-70
2022/12/22 10:24:59;;;;;;;14.00;6.65;;;;;;;10.30;100.00;100485.53;5052792;28;20020;-69
2022/12/22 10:27:30;;;;;;;9.15;3.78;;;;;;;10.51;100.00;100484.91;5053229;28;20104;-70
2022/12/22 10:30:18;;;;;;;8.13;3.53;;;;;;;10.71;100.00;100485.13;5045383;28;20021;-70
2022/12/22 10:33:02;;;;;;;9.25;3.40;;;;;;;11.04;100.00;100485.41;5034830;28;20044;-68
2022/12/22 10:35:42;;;;;;;;;;;;;;;11.14;100.00;100485.50;5042934;28;20389;-69
2022/12/22 10:38:18;;;;;;;6.80;2.53;;;;;;;11.06;100.00;100492.47;5043007;28;19928;-67
2022/12/22 10:40:47;;;;;;;9.93;2.88;;;;;;;11.16;100.00;100500.47;5042052;28;20053;-68
2022/12/22 10:43:33;;;;;;;5.80;2.40;;;;;;;11.25;100.00;100503.16;5051764;28;20412;-68
2022/12/22 10:46:00;;;;;;;11.20;2.63;;;;;;;11.70;100.00;100514.03;5036698;28;20084;-68
2022/12/22 10:48:44;;;;;;;5.57;2.17;;;;;;;11.51;100.00;100505.13;5050623;28;20033;-69
2022/12/22 10:51:13;;;;;;;9.00;2.83;;;;;;;11.73;100.00;100514.06;5047694;28;20025;-69
2022/12/22 10:53:47;;;;;;;7.80;2.45;;;;;;;12.00;100.00;100513.34;5045103;28;20376;-70
2022/12/22 10:56:32;;;;;;;3.25;1.80;;;;;;;12.21;100.00;100515.22;5048768;28;20025;-68
2022/12/22 10:59:00;;;;;;;7.18;2.30;;;;;;;12.15;100.00;100520.47;5049800;28;20496;-69
2022/12/22 11:01:34;;;;;;;4.35;2.35;;;;;;;12.44;100.00;100523.25;5049681;28;20053;-69
2022/12/22 11:04:24;;;;;;;16.27;3.42;;;;;;;11.97;100.00;100529.19;5048069;28;20025;-69
2022/12/22 11:06:49;;;;;;;8.80;2.72;;;;;;;11.66;100.00;100534.22;5032096;28;20478;-70
2022/12/22 11:09:15;;;;;;;9.32;3.20;;;;;;;11.86;100.00;100536.97;5050016;28;20104;-69
2022/12/22 11:12:03;;;;;;;6.85;3.13;;;;;;;11.85;100.00;100529.06;5044513;28;20033;-69
2022/12/22 11:14:50;;;;;;;4.75;2.45;;;;;;;11.80;100.00;100532.56;5032125;28;20589;-69
2022/12/22 11:17:19;;;;;;;10.25;3.03;;;;;;;11.30;100.00;100533.06;5039983;28;20369;-70
2022/12/22 11:19:56;;;;;;;10.85;3.10;;;;;;;10.93;100.00;100530.97;5049041;28;20473;-69
2022/12/22 11:22:35;;;;;;;5.72;2.90;;;;;;;10.51;100.00;100540.13;5051172;28;20039;-70
2022/12/22 11:25:49;;;;;;;13.57;6.75;;;;;;;9.99;100.00;100558.72;5045855;28;20017;-71
2022/12/22 11:28:52;;;;;;;15.27;7.18;;;;;;;9.14;100.00;100553.88;5019146;28;20045;-70
2022/12/22 11:31:50;;;;;;;13.13;7.82;;;;;;;8.38;100.00;100558.53;5057616;28;20037;-69
2022/12/22 11:34:18;;;;;;;15.75;7.57;;;;;;;7.73;100.00;100556.19;5038579;28;20029;-71
2022/12/22 11:36:59;;;;;;;17.13;8.35;;;;;;;7.53;100.00;100556.63;5044836;28;20071;-70
2022/12/22 11:39:33;;;;;;;18.88;8.45;;;;;;;7.17;100.00;100538.28;5049403;28;20521;-70
2022/12/22 11:42:16;;;;;;;18.85;9.30;;;;;;;7.11;100.00;100545.94;5051804;28;20500;-69
2022/12/22 11:45:00;;;;;;;19.53;8.60;;;;;;;7.04;100.00;100551.03;5050304;28;20025;-71
2022/12/22 11:47:34;;;;;;;18.30;7.70;;;;;;;7.02;100.00;100541.38;5047704;28;20618;-70
2022/12/22 11:50:09;;;;;;;27.45;9.90;;;;;;;6.91;100.00;100543.72;5046268;28;20415;-70
2022/12/22 11:52:56;;;;;;;20.10;9.30;;;;;;;6.83;100.00;100530.41;5045420;28;20025;-69
2022/12/22 11:55:30;;;;;;;27.05;10.15;;;;;;;6.82;100.00;100527.78;5050090;28;20039;-71
2022/12/22 11:58:02;;;;;;;21.75;7.85;;;;;;;6.81;100.00;100526.00;5049448;28;20041;-70
2022/12/22 12:00:37;;;;;;;26.33;9.02;;;;;;;6.70;100.00;100512.63;5051763;28;20044;-71
2022/12/22 12:03:30;;;;;;;19.77;8.27;;;;;;;6.81;100.00;100510.31;5047685;28;20029;-70
2022/12/22 12:06:36;;;;;;;15.95;6.93;;;;;;;6.85;100.00;100507.81;5058596;28;20040;-70
2022/12/22 12:09:23;;;;;;;20.10;7.13;;;;;;;6.75;100.00;100501.47;5042607;28;20396;-70
2022/12/22 12:12:30;;;;;;;20.25;7.53;;;;;;;6.84;100.00;100518.25;5053825;28;20061;-71
2022/12/22 12:15:30;;;;;;;17.48;8.75;;;;;;;6.89;100.00;100508.78;5043140;28;20029;-71
2022/12/22 12:18:25;;;;;;;27.20;10.60;;;;;;;6.84;100.00;100505.19;5051779;28;20417;-70
2022/12/22 12:21:23;;;;;;;33.75;11.45;;;;;;;6.94;100.00;100496.69;5043054;28;20102;-70
2022/12/22 12:24:02;;;;;;;25.85;10.48;;;;;;;7.00;100.00;100502.09;5000097;28;20053;-74
2022/12/22 12:26:42;;;;;;;21.13;10.27;;;;;;;6.96;100.00;100500.25;5058027;28;20028;-73
2022/12/22 12:29:25;;;;;;;22.92;11.60;;;;;;;7.04;100.00;100510.91;5065134;28;20537;-73
2022/12/22 12:32:17;;;;;;;23.35;12.02;;;;;;;7.11;100.00;100505.00;5033318;28;20035;-71
2022/12/22 12:34:58;;;;;;;25.52;12.60;;;;;;;7.11;100.00;100501.47;5046259;28;20029;-71
2022/12/22 12:37:37;;;;;;;26.10;11.00;;;;;;;7.13;100.00;100503.28;5029857;28;20041;-71
2022/12/22 12:40:21;;;;;;;33.72;13.30;;;;;;;7.23;100.00;100493.91;5031464;28;20079;-74
2022/12/22 12:42:47;;;;;;;28.17;13.57;;;;;;;7.29;100.00;100490.59;5046138;28;20059;-70
2022/12/22 12:45:39;;;;;;;24.83;12.93;;;;;;;7.38;100.00;100499.53;5051112;28;20486;-71
2022/12/22 12:48:20;;;;;;;31.40;13.60;;;;;;;7.36;100.00;100495.13;5042309;28;20025;-70
2022/12/22 12:50:56;;;;;;;35.03;15.02;;;;;;;7.43;100.00;100487.47;5049849;28;20028;-71
2022/12/22 12:53:23;;;;;;;30.30;14.52;;;;;;;7.43;100.00;100489.16;5044516;28;20115;-71
2022/12/22 12:55:48;;;;;;;33.80;15.50;;;;;;;7.39;100.00;100480.38;5045770;28;20079;-70
2022/12/22 12:58:39;;;;;;;36.35;16.73;;;;;;;7.51;100.00;100484.13;5049153;28;20025;-70
2022/12/22 13:01:32;;;;;;;34.85;15.48;;;;;;;7.47;100.00;100480.53;5047838;28;20126;-72
2022/12/22 13:03:57;;;;;;;32.00;16.40;;;;;;;7.57;100.00;100481.66;5036496;28;20045;-70
2022/12/22 13:07:01;;;;;;;33.70;17.05;;;;;;;7.56;100.00;100472.03;5050545;28;20537;-71
2022/12/22 13:09:27;;;;;;;32.00;16.58;;;;;;;7.63;100.00;100466.06;4991750;28;20030;-71
2022/12/22 13:11:54;;;;;;;33.63;16.85;;;;;;;7.67;100.00;100460.06;5037650;28;20033;-71
2022/12/22 13:15:00;;;;;;;36.08;16.52;;;;;;;7.64;100.00;100465.22;5056053;28;20068;-70
2022/12/22 13:17:33;;;;;;;32.65;16.25;;;;;;;7.74;100.00;100453.22;5050980;28;20495;-71
2022/12/22 13:19:58;;;;;;;29.08;15.68;;;;;;;7.74;100.00;100458.44;5042091;28;20033;-72
2022/12/22 13:22:24;;;;;;;29.38;16.17;;;;;;;7.68;100.00;100445.25;5057986;28;20029;-70
2022/12/22 13:24:52;;;;;;;33.50;16.67;;;;;;;7.72;100.00;100447.06;5077915;28;20047;-70
2022/12/22 13:27:17;;;;;;;32.33;16.58;;;;;;;7.72;100.00;100453.19;5042772;28;20461;-70
2022/12/22 13:29:48;;;;;;;33.38;17.15;;;;;;;7.84;100.00;100441.19;5047927;28;20154;-72
2022/12/22 13:32:19;;;;;;;28.83;16.52;;;;;;;7.87;100.00;100436.03;5055781;28;20480;-70
2022/12/22 13:34:52;;;;;;;31.77;16.38;;;;;;;7.87;100.00;100431.69;5055272;28;20126;-71
2022/12/22 13:37:21;;;;;;;32.08;16.38;;;;;;;7.90;100.00;100423.00;5050080;28;20029;-71
2022/12/22 13:40:04;;;;;;;36.97;16.55;;;;;;;7.90;100.00;100423.00;5046392;28;20387;-72
2022/12/22 13:42:30;;;;;;;29.33;15.35;;;;;;;8.05;100.00;100423.28;5048374;28;20056;-71
2022/12/22 13:44:55;;;;;;;35.90;16.73;;;;;;;8.12;100.00;100426.06;5050647;28;20485;-71
2022/12/22 13:47:21;;;;;;;36.35;17.33;;;;;;;8.07;100.00;100425.94;5047526;28;20051;-71
2022/12/22 13:49:47;;;;;;;30.42;16.08;;;;;;;8.13;100.00;100427.84;5052268;28;20040;-71
2022/12/22 13:52:16;;;;;;;34.20;16.17;;;;;;;8.20;100.00;100416.59;5049073;28;20036;-71
2022/12/22 13:54:44;;;;;;;35.58;16.30;;;;;;;8.16;100.00;100412.16;5043883;28;20116;-71
2022/12/22 13:57:27;;;;;;;36.67;18.17;;;;;;;8.13;100.00;100412.09;5048539;28;20036;-71
2022/12/22 13:59:53;;;;;;;37.42;16.75;;;;;;;8.14;100.00;100404.28;5064650;28;20036;-71
2022/12/22 14:02:20;;;;;;;34.40;16.20;;;;;;;8.13;100.00;100417.34;5044162;28;20039;-70
2022/12/22 14:05:08;;;;;;;35.72;17.42;;;;;;;8.10;100.00;100412.94;5046859;28;20021;-71
2022/12/22 14:07:33;;;;;;;34.67;17.08;;;;;;;8.13;100.00;100405.13;5062806;28;20025;-70
2022/12/22 14:10:03;;;;;;;37.20;19.05;;;;;;;8.06;100.00;100413.72;5047829;28;20017;-71
2022/12/22 14:12:31;;;;;;;30.83;17.15;;;;;;;8.04;100.00;100403.19;5050010;28;20407;-72
2022/12/22 14:15:00;;;;;;;37.25;17.67;;;;;;;8.07;100.00;100390.16;5048074;28;20043;-72
2022/12/22 14:17:30;;;;;;;36.63;17.73;;;;;;;8.02;100.00;100389.19;5054572;28;20059;-70
2022/12/22 14:19:58;;;;;;;36.05;17.63;;;;;;;7.98;100.00;100376.88;5048011;28;20052;-72
2022/12/22 14:22:41;;;;;;;38.53;19.40;;;;;;;7.95;100.00;100382.06;5047732;28;20028;-71
2022/12/22 14:25:13;;;;;;;33.00;17.00;;;;;;;7.96;100.00;100381.19;5048228;28;20033;-71
2022/12/22 14:27:42;;;;;;;39.95;19.95;;;;;;;7.93;100.00;100371.56;5048363;28;20029;-72
2022/12/22 14:30:19;;;;;;;37.50;19.17;;;;;;;7.97;100.00;100377.72;5044255;28;20020;-71
2022/12/22 14:32:48;;;;;;;45.10;20.30;;;;;;;7.98;100.00;100371.63;5046573;28;20025;-71
2022/12/22 14:35:22;;;;;;;45.20;20.15;;;;;;;7.94;100.00;100372.44;5048764;28;20055;-71
2022/12/22 14:37:54;;;;;;;34.45;18.23;;;;;;;7.92;100.00;100371.50;5048796;28;20040;-71
2022/12/22 14:40:38;;;;;;;38.75;20.25;;;;;;;7.91;100.00;100375.88;5050525;28;20037;-71
2022/12/22 14:43:12;;;;;;;41.08;20.50;;;;;;;7.95;100.00;100363.72;5063114;28;20049;-72
2022/12/22 14:45:37;;;;;;;38.75;19.92;;;;;;;7.94;100.00;100361.94;5064191;28;20029;-72
2022/12/22 14:48:08;;;;;;;39.88;20.60;;;;;;;7.95;100.00;100361.09;5038196;28;20862;-72
2022/12/22 14:50:35;;;;;;;38.53;20.15;;;;;;;7.92;100.00;100351.44;5049126;28;20063;-72
2022/12/22 14:53:03;;;;;;;38.10;20.85;;;;;;;7.88;100.00;100354.88;5055560;28;20020;-72
2022/12/22 14:55:40;;;;;;;41.63;21.58;;;;;;;7.87;100.00;100353.09;5055310;28;20021;-71
2022/12/22 14:58:11;;;;;;;46.30;22.58;;;;;;;7.84;100.00;100350.41;5053125;28;20080;-72
2022/12/22 15:00:47;;;;;;;48.88;21.50;;;;;;;7.82;100.00;100353.84;5038860;28;20099;-71
2022/12/22 15:03:36;;;;;;;44.50;22.25;;;;;;;7.79;100.00;100338.97;5041917;28;20086;-70
2022/12/22 15:06:23;;;;;;;45.53;21.60;;;;;;;7.79;100.00;100332.84;5047931;28;20033;-72